Time;durP1;ratioP1;P1;durP2;ratioP2;P2;SDS_P1;SDS_P2;PMS_P1;PMS_P2;Temp;Humidity;BMP_temperature;BMP_pressure;BME280_temperature;BME280_humidity;BME280_pressure;Samples;Min_cycle;Max_cycle;Signal;HPM_P1;HPM_P2
2022/04/16 00:02:13;;;;;;;26.90;16.00;;;6.10;99.90;;;;;;5040366;28;20200;-47
2022/04/16 00:04:42;;;;;;;20.77;16.40;;;6.10;99.90;;;;;;5040246;28;20359;-47
2022/04/16 00:07:10;;;;;;;17.40;14.82;;;6.10;99.90;;;;;;5039868;28;20539;-47
2022/04/16 00:09:38;;;;;;;17.88;13.80;;;6.10;99.90;;;;;;5043451;28;20216;-49
2022/04/16 00:12:05;;;;;;;16.98;13.70;;;6.00;99.90;;;;;;5047425;28;20265;-50
2022/04/16 00:14:34;;;;;;;20.15;15.07;;;5.90;99.90;;;;;;5041481;28;20203;-51
2022/04/16 00:17:01;;;;;;;19.05;14.90;;;5.80;99.90;;;;;;5040306;28;20200;-47
2022/04/16 00:19:33;;;;;;;21.67;16.00;;;5.70;99.90;;;;;;5041204;28;20558;-52
2022/04/16 00:22:07;;;;;;;19.83;14.23;;;5.70;99.90;;;;;;5041497;28;20200;-45
2022/04/16 00:24:36;;;;;;;25.08;13.93;;;5.60;99.90;;;;;;5042535;28;20510;-45
2022/04/16 00:27:03;;;;;;;21.25;15.70;;;5.50;99.90;;;;;;5041092;28;20273;-44
2022/04/16 00:29:30;;;;;;;19.17;15.40;;;5.50;99.90;;;;;;5040983;28;20223;-44
2022/04/16 00:31:58;;;;;;;16.35;14.05;;;5.40;99.90;;;;;;5040114;28;20511;-48
2022/04/16 00:34:25;;;;;;;15.35;13.73;;;5.40;99.90;;;;;;5040751;28;20200;-47
2022/04/16 00:36:52;;;;;;;19.50;9.80;;;5.40;99.90;;;;;;5040473;28;20200;-47
2022/04/16 00:39:26;;;;;;;16.95;12.13;;;5.40;99.90;;;;;;5041687;28;20259;-44
2022/04/16 00:41:53;;;;;;;16.45;12.20;;;5.40;99.90;;;;;;5041795;28;20211;-51
2022/04/16 00:44:20;;;;;;;11.68;10.15;;;5.40;99.90;;;;;;5040527;28;20257;-47
2022/04/16 00:46:48;;;;;;;15.73;11.13;;;5.30;99.90;;;;;;5039877;28;20224;-52
2022/04/16 00:49:16;;;;;;;11.25;9.15;;;5.30;99.90;;;;;;5039346;28;20220;-48
2022/04/16 00:51:45;;;;;;;11.00;9.98;;;5.30;99.90;;;;;;5039739;28;20234;-49
2022/04/16 00:54:13;;;;;;;13.75;11.80;;;5.30;99.90;;;;;;5039150;28;20572;-46
2022/04/16 00:56:40;;;;;;;8.77;7.93;;;5.30;99.90;;;;;;5039721;28;20242;-47
2022/04/16 00:59:08;;;;;;;12.05;9.60;;;5.30;99.90;;;;;;5039024;28;20563;-49
2022/04/16 01:01:35;;;;;;;11.90;8.82;;;5.30;99.90;;;;;;5039694;28;20270;-46
2022/04/16 01:04:03;;;;;;;17.70;10.35;;;5.30;99.90;;;;;;5038893;28;20222;-47
2022/04/16 01:06:40;;;;;;;10.00;8.70;;;5.30;99.90;;;;;;5039329;28;20509;-50
2022/04/16 01:09:07;;;;;;;9.35;8.15;;;5.30;99.90;;;;;;5039044;28;20272;-48
2022/04/16 01:11:39;;;;;;;9.55;8.65;;;5.20;99.90;;;;;;5038665;28;20202;-50
2022/04/16 01:14:07;;;;;;;10.60;9.43;;;5.20;99.90;;;;;;5038889;28;20200;-51
2022/04/16 01:16:37;;;;;;;9.50;8.05;;;5.20;99.90;;;;;;5038975;28;20391;-51
2022/04/16 01:19:10;;;;;;;10.15;9.10;;;5.20;99.90;;;;;;5036721;28;20220;-47
2022/04/16 01:21:39;;;;;;;10.05;9.07;;;5.20;99.90;;;;;;5036676;28;20502;-46
2022/04/16 01:24:09;;;;;;;9.18;8.27;;;5.10;99.90;;;;;;5044905;28;20202;-48
2022/04/16 01:26:36;;;;;;;10.88;7.88;;;5.10;99.90;;;;;;5052686;28;20254;-50
2022/04/16 01:29:03;;;;;;;9.77;8.77;;;5.10;99.90;;;;;;5058828;28;20533;-48
2022/04/16 01:31:30;;;;;;;7.60;5.72;;;5.10;99.90;;;;;;5058856;28;20528;-54
2022/04/16 01:33:57;;;;;;;8.80;6.50;;;5.10;99.90;;;;;;5058853;28;20202;-47
2022/04/16 01:36:26;;;;;;;8.40;6.85;;;5.10;99.90;;;;;;5059119;28;20203;-47
2022/04/16 01:38:53;;;;;;;6.65;5.57;;;5.10;99.90;;;;;;5058552;28;20441;-50
2022/04/16 01:41:20;;;;;;;5.82;5.32;;;5.10;99.90;;;;;;5058727;28;20245;-48
2022/04/16 01:43:47;;;;;;;8.35;6.68;;;5.10;99.90;;;;;;5059036;28;20270;-48
2022/04/16 01:46:15;;;;;;;5.53;5.13;;;5.10;99.90;;;;;;5059200;28;20202;-49
2022/04/16 01:48:42;;;;;;;5.35;4.85;;;5.10;99.90;;;;;;5058514;28;20224;-48
2022/04/16 01:51:10;;;;;;;7.95;6.70;;;5.10;99.90;;;;;;5059021;28;20203;-52
2022/04/16 01:53:38;;;;;;;6.20;5.60;;;5.10;99.90;;;;;;5059105;28;20202;-49
2022/04/16 01:56:05;;;;;;;5.57;5.07;;;5.10;99.90;;;;;;5058830;28;20276;-48
2022/04/16 01:58:38;;;;;;;5.65;5.10;;;5.20;99.90;;;;;;5059007;28;20219;-53
2022/04/16 02:01:05;;;;;;;4.82;4.25;;;5.20;99.90;;;;;;5058646;28;20278;-50
2022/04/16 02:03:33;;;;;;;7.32;5.07;;;5.10;99.90;;;;;;5038173;28;20210;-51
2022/04/16 02:06:00;;;;;;;4.45;3.90;;;5.10;99.90;;;;;;5050398;28;20269;-52
2022/04/16 02:08:27;;;;;;;4.15;3.75;;;5.00;99.90;;;;;;5059088;28;20223;-47
2022/04/16 02:10:58;;;;;;;3.40;3.10;;;5.00;99.90;;;;;;5059094;28;20219;-50
2022/04/16 02:13:25;;;;;;;4.00;3.60;;;4.90;99.90;;;;;;5059166;28;20207;-50
2022/04/16 02:15:54;;;;;;;11.85;4.05;;;4.90;99.90;;;;;;5058337;28;20383;-51
2022/04/16 02:18:23;;;;;;;6.70;4.35;;;4.90;99.90;;;;;;5058442;28;20265;-48
2022/04/16 02:20:51;;;;;;;5.32;3.97;;;4.80;99.90;;;;;;5058672;28;20294;-48
2022/04/16 02:23:18;;;;;;;4.75;4.00;;;4.80;99.90;;;;;;5061004;28;20260;-48
2022/04/16 02:25:45;;;;;;;4.70;3.10;;;4.80;99.90;;;;;;5062441;28;20202;-47
2022/04/16 02:28:13;;;;;;;5.95;4.05;;;4.80;99.90;;;;;;5061729;28;20413;-46
2022/04/16 02:30:40;;;;;;;3.83;3.53;;;4.80;99.90;;;;;;5062432;28;20199;-51
2022/04/16 02:33:07;;;;;;;3.15;2.72;;;4.80;99.90;;;;;;5061894;28;20196;-51
2022/04/16 02:35:35;;;;;;;3.85;3.45;;;4.70;99.90;;;;;;5062285;28;20221;-48
2022/04/16 02:38:02;;;;;;;4.90;4.03;;;4.70;99.90;;;;;;5061800;28;20226;-49
2022/04/16 02:40:29;;;;;;;3.88;3.10;;;4.80;99.90;;;;;;5061820;28;20248;-52
2022/04/16 02:42:57;;;;;;;4.30;3.55;;;4.70;99.90;;;;;;5061841;28;20199;-49
2022/04/16 02:48:10;;;;;;;2.80;2.60;;;4.60;99.90;;;;;;5061281;28;20557;-50
2022/04/16 02:50:37;;;;;;;3.42;3.00;;;4.60;99.90;;;;;;5061659;28;20236;-49
2022/04/16 02:53:04;;;;;;;3.33;3.10;;;4.50;99.90;;;;;;5067235;28;20249;-56
2022/04/16 02:55:31;;;;;;;4.68;3.03;;;4.50;99.90;;;;;;5073477;28;20222;-52
2022/04/16 02:57:59;;;;;;;4.95;3.45;;;4.50;99.90;;;;;;5063634;28;20260;-47
2022/04/16 03:00:26;;;;;;;2.70;2.50;;;4.40;99.90;;;;;;5061464;28;20269;-48
2022/04/16 03:02:56;;;;;;;2.95;2.15;;;4.50;99.90;;;;;;5060969;28;20205;-49
2022/04/16 03:05:24;;;;;;;3.22;2.60;;;4.40;99.90;;;;;;5061713;28;20664;-48
2022/04/16 03:07:51;;;;;;;3.97;3.50;;;4.50;99.90;;;;;;5060873;28;20257;-50
2022/04/16 03:10:18;;;;;;;4.32;2.95;;;4.50;99.90;;;;;;5061778;28;20244;-48
2022/04/16 03:12:53;;;;;;;2.70;2.50;;;4.40;99.90;;;;;;5061012;28;20198;-47
2022/04/16 03:18:09;;;;;;;3.90;3.10;;;4.40;99.90;;;;;;5060938;28;20237;-47
2022/04/16 03:20:40;;;;;;;2.70;2.50;;;4.40;99.90;;;;;;5061140;28;20206;-49
2022/04/16 03:23:09;;;;;;;5.28;4.18;;;4.40;99.90;;;;;;5060802;28;20201;-48
2022/04/16 03:25:43;;;;;;;3.63;3.35;;;4.40;99.90;;;;;;5061077;28;20202;-51
2022/04/16 03:28:11;;;;;;;3.60;3.25;;;4.30;99.90;;;;;;5060803;28;20238;-48
2022/04/16 03:30:38;;;;;;;3.50;3.20;;;4.40;99.90;;;;;;5060932;28;20198;-48
2022/04/16 03:33:06;;;;;;;2.65;2.45;;;4.40;99.90;;;;;;5059820;28;20509;-50
2022/04/16 03:35:34;;;;;;;4.07;3.78;;;4.40;99.90;;;;;;5060594;28;20288;-51
2022/04/16 03:38:02;;;;;;;7.40;3.20;;;4.40;99.90;;;;;;5060407;28;20230;-49
2022/04/16 03:40:29;;;;;;;2.42;2.22;;;4.40;99.90;;;;;;5060871;28;20259;-48
2022/04/16 03:43:00;;;;;;;3.33;3.03;;;4.40;99.90;;;;;;5060520;28;20210;-49
2022/04/16 03:45:32;;;;;;;4.18;2.78;;;4.30;99.90;;;;;;5061063;28;20264;-48
2022/04/16 03:48:01;;;;;;;5.53;2.53;;;4.30;99.90;;;;;;5060416;28;20226;-51
2022/04/16 03:50:31;;;;;;;2.83;2.63;;;4.30;99.90;;;;;;5060158;28;20264;-47
2022/04/16 03:52:59;;;;;;;2.90;2.60;;;4.30;99.90;;;;;;5064337;28;20259;-47
2022/04/16 04:01:03;;;;;;;3.40;2.95;;;4.20;99.90;;;;;;5068288;28;20420;-49
2022/04/16 04:03:33;;;;;;;2.75;2.55;;;4.20;99.90;;;;;;5061965;28;20209;-51
2022/04/16 04:06:01;;;;;;;2.85;2.63;;;4.20;99.90;;;;;;5060215;28;20244;-50
2022/04/16 04:08:29;;;;;;;3.30;2.90;;;4.20;99.90;;;;;;5059807;28;20225;-52
2022/04/16 04:10:57;;;;;;;3.83;2.63;;;4.20;99.90;;;;;;5059859;28;20202;-51
2022/04/16 04:13:24;;;;;;;2.90;2.70;;;4.10;99.90;;;;;;5060102;28;20415;-51
2022/04/16 04:15:52;;;;;;;2.60;2.40;;;4.10;99.90;;;;;;5060297;28;20432;-48
2022/04/16 04:18:22;;;;;;;3.90;2.60;;;4.10;99.90;;;;;;5060661;28;20611;-50
2022/04/16 04:20:50;;;;;;;2.58;2.13;;;4.20;99.90;;;;;;5059976;28;20213;-55
2022/04/16 04:23:19;;;;;;;2.75;2.20;;;4.20;99.90;;;;;;5060474;28;20233;-47
2022/04/16 04:25:46;;;;;;;3.03;2.70;;;4.20;99.90;;;;;;5059466;28;20201;-51
2022/04/16 04:28:13;;;;;;;2.40;2.20;;;4.20;99.90;;;;;;5060027;28;20243;-48
2022/04/16 04:30:41;;;;;;;7.75;4.55;;;4.20;99.90;;;;;;5059768;28;20221;-51
2022/04/16 04:33:08;;;;;;;3.70;3.40;;;4.10;99.90;;;;;;5059706;28;20191;-49
2022/04/16 04:35:36;;;;;;;3.40;2.22;;;4.10;99.90;;;;;;5059799;28;20202;-49
2022/04/16 04:38:03;;;;;;;2.40;2.20;;;4.10;99.90;;;;;;5060053;28;20232;-50
2022/04/16 04:40:31;;;;;;;3.50;3.22;;;4.10;99.90;;;;;;5050690;28;20218;-51
2022/04/16 04:42:58;;;;;;;3.65;3.05;;;4.10;99.90;;;;;;5037375;28;20214;-51
2022/04/16 04:45:26;;;;;;;2.70;2.50;;;4.10;99.90;;;;;;5040045;28;20440;-49
2022/04/16 04:47:53;;;;;;;3.20;2.75;;;4.10;99.90;;;;;;5035982;28;20545;-48
2022/04/16 04:50:21;;;;;;;2.90;2.70;;;4.10;99.90;;;;;;5043906;28;20234;-48
2022/04/16 04:52:48;;;;;;;10.35;3.85;;;4.10;99.90;;;;;;5044229;28;20230;-51
2022/04/16 04:55:15;;;;;;;5.78;3.60;;;4.20;99.90;;;;;;5043835;28;20248;-49
2022/04/16 04:57:43;;;;;;;4.75;3.20;;;4.20;99.90;;;;;;5043755;28;20230;-50
2022/04/16 05:00:12;;;;;;;5.25;3.45;;;4.20;99.90;;;;;;5049396;28;20535;-46
2022/04/16 05:02:47;;;;;;;6.32;3.63;;;4.20;99.90;;;;;;5054343;28;20206;-49
2022/04/16 05:05:15;;;;;;;3.10;2.80;;;4.20;99.90;;;;;;5059543;28;20243;-48
2022/04/16 05:07:43;;;;;;;4.82;3.13;;;4.10;99.90;;;;;;5059104;28;20238;-51
2022/04/16 05:10:11;;;;;;;3.47;3.22;;;4.10;99.90;;;;;;5058832;28;20383;-51
2022/04/16 05:12:38;;;;;;;3.10;2.80;;;4.10;99.90;;;;;;5059364;28;20363;-50
2022/04/16 05:15:06;;;;;;;2.60;2.40;;;4.20;99.90;;;;;;5058760;28;20213;-50
2022/04/16 05:17:37;;;;;;;3.50;3.20;;;4.20;99.90;;;;;;5058994;28;20198;-50
2022/04/16 05:20:09;;;;;;;3.42;3.00;;;4.10;99.90;;;;;;5059452;28;20239;-49
2022/04/16 05:22:36;;;;;;;3.60;3.33;;;4.20;99.90;;;;;;5059127;28;20213;-53
2022/04/16 05:25:04;;;;;;;5.70;3.28;;;4.10;99.90;;;;;;5059057;28;20276;-48
2022/04/16 05:27:31;;;;;;;5.55;3.58;;;4.20;99.90;;;;;;5059311;28;20378;-47
2022/04/16 05:30:12;;;;;;;5.53;3.05;;;4.10;99.90;;;;;;5059369;28;20232;-55
2022/04/16 05:32:42;;;;;;;4.53;3.47;;;4.00;99.90;;;;;;5058843;28;20358;-49
2022/04/16 05:35:10;;;;;;;3.72;3.15;;;4.10;99.90;;;;;;5058938;28;20202;-49
2022/04/16 05:37:38;;;;;;;4.60;3.55;;;4.10;99.90;;;;;;5065324;28;20447;-50
2022/04/16 05:40:06;;;;;;;3.20;2.90;;;4.20;99.90;;;;;;5070834;28;20212;-51
2022/04/16 05:42:44;;;;;;;4.13;3.80;;;4.20;99.90;;;;;;5059750;28;20226;-50
2022/04/16 05:45:14;;;;;;;3.22;3.03;;;4.10;99.90;;;;;;5059216;28;20201;-49
2022/04/16 05:47:43;;;;;;;5.03;4.38;;;4.20;99.90;;;;;;5058934;28;20516;-48
2022/04/16 05:50:11;;;;;;;5.95;3.08;;;4.20;99.90;;;;;;5059328;28;20405;-49
2022/04/16 05:52:42;;;;;;;3.92;3.53;;;4.20;99.90;;;;;;5059016;28;20202;-50
2022/04/16 05:55:11;;;;;;;5.45;3.55;;;4.20;99.90;;;;;;5058684;28;20244;-50
2022/04/16 05:57:39;;;;;;;5.50;4.15;;;4.20;99.90;;;;;;5060674;28;20252;-51
2022/04/16 06:00:07;;;;;;;4.20;3.83;;;4.20;99.90;;;;;;5062308;28;20517;-50
2022/04/16 06:02:37;;;;;;;3.53;3.25;;;4.20;99.90;;;;;;5063020;28;20203;-50
2022/04/16 06:05:05;;;;;;;3.83;3.53;;;4.30;99.90;;;;;;5062076;28;20199;-52
2022/04/16 06:07:32;;;;;;;3.70;3.50;;;4.40;99.90;;;;;;5061502;28;20247;-51
2022/04/16 06:10:00;;;;;;;4.10;3.80;;;4.40;99.90;;;;;;5062105;28;20225;-50
2022/04/16 06:12:27;;;;;;;4.05;3.65;;;4.40;99.90;;;;;;5062791;28;20236;-50
2022/04/16 06:14:54;;;;;;;4.93;4.15;;;4.50;99.90;;;;;;5062666;28;20198;-49
2022/04/16 06:17:25;;;;;;;4.80;4.25;;;4.50;99.90;;;;;;5062328;28;20564;-48
2022/04/16 06:19:52;;;;;;;5.45;4.95;;;4.40;99.90;;;;;;5045884;28;20506;-48
2022/04/16 06:22:20;;;;;;;5.10;4.70;;;4.30;99.90;;;;;;5022675;28;20198;-49
2022/04/16 06:24:48;;;;;;;4.43;4.05;;;4.20;99.90;;;;;;5022652;28;20231;-48
2022/04/16 06:27:15;;;;;;;4.97;4.47;;;4.20;99.90;;;;;;5022177;28;20210;-50
2022/04/16 06:29:41;;;;;;;5.53;4.85;;;4.20;99.90;;;;;;5022310;28;20269;-48
2022/04/16 06:32:09;;;;;;;5.05;4.10;;;4.20;99.90;;;;;;5022027;28;20204;-51
2022/04/16 06:34:36;;;;;;;10.10;4.68;;;4.50;99.90;;;;;;5022465;28;20215;-51
2022/04/16 06:37:04;;;;;;;7.03;3.92;;;4.50;99.90;;;;;;5021883;28;20215;-52
2022/04/16 06:39:31;;;;;;;4.15;3.80;;;4.60;99.90;;;;;;5022273;28;20458;-51
2022/04/16 06:41:59;;;;;;;7.15;5.07;;;4.80;99.90;;;;;;5022549;28;20262;-50
2022/04/16 06:44:27;;;;;;;4.55;4.15;;;4.90;99.90;;;;;;5022058;28;20225;-51
2022/04/16 06:46:57;;;;;;;3.67;3.38;;;4.90;99.90;;;;;;5022129;28;20203;-49
2022/04/16 06:49:28;;;;;;;6.03;4.43;;;4.90;99.90;;;;;;5022265;28;20228;-50
2022/04/16 06:51:55;;;;;;;4.20;3.80;;;5.00;99.90;;;;;;5022130;28;20200;-47
2022/04/16 06:54:22;;;;;;;6.07;4.47;;;5.00;99.90;;;;;;5022327;28;20247;-51
2022/04/16 06:56:50;;;;;;;5.05;4.38;;;5.10;99.90;;;;;;5023332;28;20504;-49
2022/04/16 06:59:17;;;;;;;4.93;3.95;;;5.20;99.90;;;;;;5023036;28;20294;-47
2022/04/16 07:01:44;;;;;;;4.60;3.63;;;5.30;99.90;;;;;;5024714;28;20208;-52
2022/04/16 07:04:12;;;;;;;4.00;3.33;;;5.50;99.90;;;;;;5024200;28;20327;-46
2022/04/16 07:06:41;;;;;;;5.38;4.43;;;5.70;99.90;;;;;;5023343;28;20212;-50
2022/04/16 07:09:12;;;;;;;4.97;4.43;;;6.00;99.90;;;;;;5022935;28;20278;-50
2022/04/16 07:11:39;;;;;;;6.57;5.10;;;6.00;99.90;;;;;;5025005;28;20232;-49
2022/04/16 07:14:09;;;;;;;4.93;3.67;;;6.20;99.90;;;;;;5029194;28;20267;-53
2022/04/16 07:16:37;;;;;;;4.13;3.72;;;6.30;99.90;;;;;;5024921;28;20238;-52
2022/04/16 07:19:05;;;;;;;4.80;3.97;;;6.10;99.90;;;;;;5021972;28;20270;-51
2022/04/16 07:21:32;;;;;;;4.40;4.00;;;5.90;99.90;;;;;;5021623;28;20287;-51
2022/04/16 07:23:59;;;;;;;5.15;4.30;;;6.00;99.90;;;;;;5021617;28;20201;-47
2022/04/16 07:26:26;;;;;;;4.13;3.72;;;6.10;99.90;;;;;;5031103;28;20203;-49
2022/04/16 07:28:56;;;;;;;4.97;4.68;;;6.00;99.90;;;;;;5041335;28;20224;-46
2022/04/16 07:31:23;;;;;;;4.65;3.70;;;5.90;99.90;;;;;;5030019;28;20259;-52
2022/04/16 07:33:54;;;;;;;4.85;4.45;;;6.00;99.90;;;;;;5020255;28;20428;-47
2022/04/16 07:36:21;;;;;;;6.75;3.90;;;6.10;99.90;;;;;;5020794;28;20240;-49
2022/04/16 07:38:48;;;;;;;4.00;3.60;;;6.10;99.90;;;;;;5022567;28;20573;-46
2022/04/16 07:41:15;;;;;;;3.28;2.97;;;6.40;99.90;;;;;;5038274;28;20210;-49
2022/04/16 07:43:43;;;;;;;4.00;3.70;;;6.70;99.90;;;;;;5034168;28;20549;-48
2022/04/16 07:46:10;;;;;;;3.40;3.10;;;7.50;99.90;;;;;;5040729;28;20204;-50
2022/04/16 07:48:37;;;;;;;5.25;3.78;;;8.50;99.90;;;;;;5048975;28;20523;-50
2022/04/16 07:51:05;;;;;;;3.83;3.53;;;8.90;99.90;;;;;;5041355;28;20519;-52
2022/04/16 07:53:32;;;;;;;4.15;3.80;;;8.80;99.90;;;;;;5041152;28;20200;-48
2022/04/16 07:55:59;;;;;;;8.68;4.63;;;8.20;99.90;;;;;;5040945;28;20549;-51
2022/04/16 07:58:27;;;;;;;3.38;3.13;;;7.70;99.90;;;;;;5045160;28;20285;-51
2022/04/16 08:00:57;;;;;;;4.07;3.75;;;7.60;99.90;;;;;;5052007;28;20226;-49
2022/04/16 08:03:25;;;;;;;4.15;3.85;;;7.70;99.90;;;;;;5061755;28;20199;-48
2022/04/16 08:05:52;;;;;;;5.25;4.30;;;8.80;99.90;;;;;;5060723;28;20230;-49
2022/04/16 08:08:20;;;;;;;4.30;3.90;;;10.80;99.90;;;;;;5060813;28;20227;-51
2022/04/16 08:10:51;;;;;;;3.72;3.42;;;11.90;99.90;;;;;;5060007;28;20196;-51
2022/04/16 08:13:20;;;;;;;4.25;3.88;;;10.80;99.90;;;;;;5059935;28;20199;-50
2022/04/16 08:15:49;;;;;;;3.80;3.45;;;10.70;99.90;;;;;;5060588;28;20205;-53
2022/04/16 08:18:17;;;;;;;3.65;3.35;;;9.90;99.90;;;;;;5060578;28;20289;-47
2022/04/16 08:20:44;;;;;;;3.40;3.20;;;9.30;99.90;;;;;;5059360;28;20350;-52
2022/04/16 08:23:13;;;;;;;9.82;3.50;;;9.00;99.90;;;;;;5061081;28;20200;-50
2022/04/16 08:28:08;;;;;;;3.55;3.25;;;11.00;99.90;;;;;;5066964;28;20222;-51
2022/04/16 08:30:36;;;;;;;3.33;2.67;;;11.50;99.90;;;;;;5060633;28;20222;-51
2022/04/16 08:33:05;;;;;;;5.15;3.25;;;11.80;99.90;;;;;;5059775;28;20516;-51
2022/04/16 08:35:32;;;;;;;2.85;2.65;;;12.20;99.90;;;;;;5060130;28;20199;-50
2022/04/16 08:37:59;;;;;;;4.50;3.15;;;10.90;99.90;;;;;;5059989;28;20226;-50
2022/04/16 08:40:27;;;;;;;2.83;2.63;;;11.50;99.90;;;;;;5059835;28;20202;-47
2022/04/16 08:42:55;;;;;;;2.63;2.42;;;10.70;99.90;;;;;;5059262;28;20209;-48
2022/04/16 08:45:24;;;;;;;2.35;2.25;;;9.30;99.90;;;;;;5060093;28;20300;-51
2022/04/16 08:47:54;;;;;;;2.15;2.00;;;8.90;99.90;;;;;;5059558;28;20232;-47
2022/04/16 08:50:23;;;;;;;3.95;3.58;;;8.90;99.90;;;;;;5059562;28;20233;-48
2022/04/16 08:52:50;;;;;;;3.83;2.92;;;8.90;99.90;;;;;;5059964;28;20233;-52
2022/04/16 08:55:17;;;;;;;5.45;2.78;;;8.40;99.90;;;;;;5059606;28;20204;-51
2022/04/16 08:57:44;;;;;;;3.00;2.70;;;8.50;99.90;;;;;;5059755;28;20215;-50
2022/04/16 09:00:13;;;;;;;4.65;2.40;;;10.70;99.90;;;;;;5059935;28;20199;-52
2022/04/16 09:03:10;;;;;;;2.85;2.40;;;12.80;99.90;;;;;;5059592;28;20230;-49
2022/04/16 09:05:37;;;;;;;3.42;2.33;;;13.70;99.90;;;;;;5046698;28;20211;-49
2022/04/16 09:08:05;;;;;;;3.58;2.42;;;12.00;99.90;;;;;;5059483;28;20254;-51
2022/04/16 09:10:33;;;;;;;2.03;1.92;;;10.60;99.90;;;;;;5059411;28;20508;-49
2022/04/16 09:13:04;;;;;;;2.33;2.13;;;9.40;99.90;;;;;;5059583;28;20202;-52
2022/04/16 09:15:34;;;;;;;2.97;2.70;;;9.00;99.90;;;;;;5059178;28;20554;-50
2022/04/16 09:18:04;;;;;;;2.45;2.10;;;9.80;99.90;;;;;;5059063;28;20343;-48
2022/04/16 09:20:39;;;;;;;2.25;2.05;;;10.60;99.90;;;;;;5059845;28;20206;-52
2022/04/16 09:23:20;;;;;;;3.25;2.70;;;11.40;99.90;;;;;;5059637;28;20516;-52
2022/04/16 09:25:51;;;;;;;2.80;2.38;;;11.90;99.90;;;;;;5059380;28;20471;-50
2022/04/16 09:28:21;;;;;;;4.45;2.40;;;11.50;99.90;;;;;;5059886;28;20273;-49
2022/04/16 09:30:54;;;;;;;2.28;2.08;;;11.30;99.90;;;;;;5060549;28;20425;-49
2022/04/16 09:33:21;;;;;;;2.63;2.42;;;10.40;99.90;;;;;;5064237;28;20259;-51
2022/04/16 09:35:55;;;;;;;2.40;2.20;;;10.00;99.90;;;;;;5063988;28;20204;-47
2022/04/16 09:38:25;;;;;;;7.25;3.03;;;10.10;99.90;;;;;;5063598;28;20222;-52
2022/04/16 09:40:52;;;;;;;2.00;1.90;;;10.30;99.90;;;;;;5063064;28;20209;-52
2022/04/16 09:43:19;;;;;;;3.00;2.15;;;10.60;99.90;;;;;;5063127;28;20534;-48
2022/04/16 09:45:46;;;;;;;4.32;2.35;;;10.30;99.90;;;;;;5063059;28;20424;-48
2022/04/16 09:48:14;;;;;;;2.85;2.00;;;9.70;99.90;;;;;;5063510;28;20259;-49
2022/04/16 09:50:43;;;;;;;3.47;2.47;;;10.00;99.90;;;;;;5063041;28;20224;-51
2022/04/16 09:53:11;;;;;;;2.55;2.35;;;9.80;99.90;;;;;;5062681;28;20243;-52
2022/04/16 09:55:40;;;;;;;1.70;1.60;;;9.80;99.90;;;;;;5062776;28;20203;-52
2022/04/16 09:58:08;;;;;;;1.90;1.80;;;9.80;99.90;;;;;;5063171;28;20216;-50
2022/04/16 10:00:37;;;;;;;2.65;2.45;;;9.50;99.90;;;;;;5063426;28;20263;-48
2022/04/16 10:03:25;;;;;;;5.55;2.10;;;9.50;99.90;;;;;;5063172;28;20193;-51
2022/04/16 10:05:55;;;;;;;1.52;1.42;;;9.80;99.90;;;;;;5062971;28;20247;-49
2022/04/16 10:08:25;;;;;;;2.17;2.00;;;9.80;99.90;;;;;;5063057;28;20249;-50
2022/04/16 10:10:54;;;;;;;2.00;1.80;;;9.70;99.90;;;;;;5063082;28;20490;-50
2022/04/16 10:13:23;;;;;;;1.83;1.73;;;9.80;99.90;;;;;;5062865;28;20327;-48
2022/04/16 10:16:09;;;;;;;2.17;1.98;;;10.10;99.90;;;;;;5063116;28;20212;-48
2022/04/16 10:18:40;;;;;;;1.67;1.58;;;10.30;99.90;;;;;;5062428;28;20225;-47
2022/04/16 10:21:15;;;;;;;2.17;1.90;;;10.20;99.90;;;;;;5063417;28;20236;-54
2022/04/16 10:23:44;;;;;;;1.83;1.73;;;9.90;99.90;;;;;;5064680;28;20303;-51
2022/04/16 10:26:20;;;;;;;1.15;1.10;;;9.70;99.90;;;;;;5063235;28;20235;-50
2022/04/16 10:28:53;;;;;;;1.60;1.50;;;9.50;99.90;;;;;;5062321;28;20216;-51
2022/04/16 10:31:30;;;;;;;3.53;2.45;;;9.80;99.90;;;;;;5062402;28;20205;-48
2022/04/16 10:34:03;;;;;;;1.40;1.30;;;9.90;99.90;;;;;;5061935;28;20247;-50
2022/04/16 10:36:44;;;;;;;2.03;1.92;;;10.10;99.90;;;;;;5062190;28;20200;-52
2022/04/16 10:39:15;;;;;;;2.00;1.80;;;10.30;99.90;;;;;;5061397;28;20225;-52
2022/04/16 10:42:00;;;;;;;2.45;2.22;;;10.00;99.90;;;;;;5061848;28;20202;-52
2022/04/16 10:44:29;;;;;;;4.72;1.98;;;9.80;99.90;;;;;;5061455;28;20206;-51
2022/04/16 10:46:59;;;;;;;1.60;1.50;;;9.70;99.90;;;;;;5062775;28;20200;-52
2022/04/16 10:49:31;;;;;;;3.28;2.15;;;10.00;99.90;;;;;;5061918;28;20272;-47
2022/04/16 10:51:58;;;;;;;1.60;1.50;;;10.10;99.90;;;;;;5062065;28;20436;-50
2022/04/16 10:54:34;;;;;;;1.90;1.80;;;10.40;99.90;;;;;;5061470;28;20235;-52
2022/04/16 10:57:03;;;;;;;2.65;2.20;;;10.70;99.90;;;;;;5062101;28;20198;-49
2022/04/16 10:59:38;;;;;;;7.15;3.50;;;10.50;99.90;;;;;;5061554;28;20467;-49
2022/04/16 11:02:23;;;;;;;3.33;2.38;;;10.40;99.90;;;;;;5061447;28;20205;-51
2022/04/16 11:05:00;;;;;;;1.50;1.40;;;10.30;99.90;;;;;;5061385;28;20205;-53
2022/04/16 11:07:29;;;;;;;3.65;2.85;;;9.80;99.90;;;;;;5061469;28;20247;-49
2022/04/16 11:09:57;;;;;;;1.88;1.77;;;10.00;99.90;;;;;;5061345;28;20423;-53
2022/04/16 11:12:26;;;;;;;2.33;2.13;;;10.50;99.90;;;;;;5071574;28;20199;-51
2022/04/16 11:14:54;;;;;;;2.17;1.98;;;10.20;99.90;;;;;;5066844;28;20236;-52
2022/04/16 11:17:21;;;;;;;3.47;2.28;;;10.30;99.90;;;;;;5061858;28;20197;-48
2022/04/16 11:19:59;;;;;;;2.85;2.55;;;10.20;99.90;;;;;;5061161;28;20556;-48
2022/04/16 11:22:27;;;;;;;4.18;2.72;;;9.90;99.90;;;;;;5061248;28;20208;-48
2022/04/16 11:24:55;;;;;;;2.50;2.08;;;10.20;99.90;;;;;;5061406;28;20202;-51
2022/04/16 11:36:04;;;;;;;2.00;1.90;;;10.70;99.90;;;;;;5061009;28;20498;-51
2022/04/16 11:38:34;;;;;;;2.95;1.90;;;10.40;99.90;;;;;;5061499;28;20241;-50
2022/04/16 11:41:06;;;;;;;3.80;2.95;;;9.90;99.90;;;;;;5060374;28;20237;-54
2022/04/16 11:43:34;;;;;;;2.42;2.22;;;9.70;99.90;;;;;;5060996;28;20206;-49
2022/04/16 11:46:02;;;;;;;2.15;2.03;;;9.80;99.90;;;;;;5060559;28;20206;-50
2022/04/16 11:48:32;;;;;;;2.67;2.25;;;10.00;99.90;;;;;;5060976;28;20261;-51
2022/04/16 11:51:00;;;;;;;2.47;2.20;;;10.10;99.90;;;;;;5060757;28;20237;-49
2022/04/16 11:53:30;;;;;;;2.50;2.10;;;10.30;99.90;;;;;;5060331;28;20393;-51
2022/04/16 11:56:01;;;;;;;3.83;2.30;;;10.30;99.90;;;;;;5060767;28;20198;-52
2022/04/16 11:58:29;;;;;;;2.28;2.10;;;10.70;99.90;;;;;;5060385;28;20347;-50
2022/04/16 12:00:57;;;;;;;2.88;2.15;;;10.40;99.90;;;;;;5060653;28;20201;-49
2022/04/16 12:03:39;;;;;;;3.38;2.85;;;10.10;99.90;;;;;;5061745;28;20272;-53
2022/04/16 12:06:11;;;;;;;2.10;1.95;;;9.80;99.90;;;;;;5060774;28;20216;-47
2022/04/16 12:08:46;;;;;;;3.15;2.90;;;9.50;99.90;;;;;;5061562;28;20221;-49
2022/04/16 12:11:13;;;;;;;3.15;2.00;;;9.60;99.90;;;;;;5060235;28;20213;-51
2022/04/16 12:13:42;;;;;;;2.92;2.65;;;9.90;99.90;;;;;;5060043;28;20205;-53
2022/04/16 12:16:12;;;;;;;2.90;2.58;;;10.00;99.90;;;;;;5059238;28;20224;-50
2022/04/16 12:18:42;;;;;;;1.95;1.83;;;9.90;99.90;;;;;;5061463;28;20221;-51
2022/04/16 12:21:14;;;;;;;2.20;2.10;;;10.00;99.90;;;;;;5062759;28;20395;-50
2022/04/16 12:23:43;;;;;;;2.38;2.08;;;9.80;99.90;;;;;;5062137;28;20200;-49
2022/04/16 12:26:12;;;;;;;2.92;2.72;;;10.00;99.90;;;;;;5062735;28;20201;-53
2022/04/16 12:28:47;;;;;;;2.88;2.63;;;10.30;99.90;;;;;;5062479;28;20220;-51
2022/04/16 12:31:28;;;;;;;3.05;2.72;;;10.10;99.90;;;;;;5061823;28;20249;-53
2022/04/16 12:33:56;;;;;;;2.35;2.25;;;10.20;99.90;;;;;;5061536;28;20201;-54
2022/04/16 12:36:23;;;;;;;2.22;2.03;;;10.10;99.90;;;;;;5061476;28;20201;-53
2022/04/16 12:38:51;;;;;;;2.30;2.20;;;10.30;99.90;;;;;;5060839;28;20221;-51
2022/04/16 12:41:20;;;;;;;2.30;2.20;;;10.40;99.90;;;;;;5061207;28;20205;-52
2022/04/16 12:43:48;;;;;;;3.10;2.88;;;10.30;99.90;;;;;;5061146;28;20247;-50
2022/04/16 12:46:15;;;;;;;3.10;2.80;;;10.20;99.90;;;;;;5060340;28;20194;-52
2022/04/16 12:48:43;;;;;;;2.28;2.10;;;9.70;99.90;;;;;;5060746;28;20623;-52
2022/04/16 12:51:13;;;;;;;2.15;1.95;;;9.60;99.90;;;;;;5059421;28;20302;-50
2022/04/16 12:53:41;;;;;;;2.67;2.58;;;9.60;99.90;;;;;;5060056;28;20243;-52
2022/04/16 12:56:08;;;;;;;2.95;2.75;;;10.00;99.90;;;;;;5059773;28;20199;-49
2022/04/16 12:58:35;;;;;;;2.80;2.60;;;10.30;99.90;;;;;;5060498;28;20531;-49
2022/04/16 13:01:02;;;;;;;4.22;2.85;;;10.40;99.90;;;;;;5059689;28;20306;-50
2022/04/16 13:03:29;;;;;;;3.13;2.90;;;10.40;99.90;;;;;;5059933;28;20253;-53
2022/04/16 13:05:57;;;;;;;2.60;2.40;;;10.30;99.90;;;;;;5059613;28;20390;-56
2022/04/16 13:08:24;;;;;;;2.67;2.47;;;10.50;99.90;;;;;;5059679;28;20431;-52
2022/04/16 13:10:52;;;;;;;2.25;2.10;;;10.30;99.90;;;;;;5059819;28;20545;-52
2022/04/16 13:13:27;;;;;;;2.20;2.10;;;10.20;99.90;;;;;;5059512;28;20235;-52
2022/04/16 13:15:55;;;;;;;1.90;1.80;;;10.20;99.90;;;;;;5059218;28;20504;-49
2022/04/16 13:18:22;;;;;;;3.03;2.78;;;10.30;99.90;;;;;;5059676;28;20221;-53
2022/04/16 13:20:50;;;;;;;4.57;2.00;;;10.50;99.90;;;;;;5059624;28;20202;-49
2022/04/16 13:23:17;;;;;;;4.20;2.10;;;10.90;99.90;;;;;;5060731;28;20202;-53
2022/04/16 13:25:44;;;;;;;3.03;2.72;;;11.00;99.90;;;;;;5060876;28;20197;-50